Akureyri, Iceland

1:23 AM GMT on January 28, 2015 (GMT +0000)
Akureyri | Change Station
CLOSE
Current Station
Airport
Location: Akureyri,
Elevation: 89 ft
Nearby Weather Stations

Elev 89 ft 65.66 °N, 18.07 °W | Updated 23 minutes ago

Mostly Cloudy
Mostly Cloudy
34 °F
Feels Like 24 °F
N
14
Wind Variable Wind from SSW

Today
High -- | Low -- °F
--% Chance of Precip.
Yesterday
High -- | Low -- °F
Precip. -- in
10:20 AM 4:31 PM
First Quarter, 59% visible
Pressure 28.77 in
Visibility 6.2 miles
Clouds Mostly Cloudy 6100 ft
Windchill 24 °F
Dew Point 23 °F
Humidity 65%
Rainfall 0.00 in
Snow Depth Not available.
UV 0 out of 12
Pollen Not available.
Air Quality Not available.
Flu Activity Not available.
METAR BIAR 280100Z 20012KT 9999 BKN061 01/M05 Q0974

More Conditions Fewer Conditions

Pressure 28.77 in
Visibility 6.2 miles
Clouds Mostly Cloudy 6100 ft
Windchill 24 °F
Dew Point 23 °F
Humidity 65%
Rainfall 0.00 in
Snow Depth Not available.
UV 0 out of 12
Pollen Not available.
Air Quality Not available.
Flu Activity Not available.
METAR BIAR 280100Z 20012KT 9999 BKN061 01/M05 Q0974

More Conditions Fewer Conditions

10-Day Weather Forecast

Almanac

Astronomy

Jan. 28, 2015 Rise Set
Actual Time
Civil Twilight
Nautical Twilight
Astronomical Twilight
Moon
Length of Visible Light
Length of Day
Tomorrow will be .
, % of the Moon is Illuminated

Today's Extremes

Country Highs Country Lows

Community

WunderPhotos

Upload Photos

1,791,024 photos uploaded!

WunderBlogs® & News

Nearby

Air Quality

  Air Quality AQ Index Pollutant
Not available.

Snow Depth

Station Depth Elevation

Earthquake Activity

City Distance Mag. Time & Date
Minimum magnitude displayed is 2.5.

Coastal Water Temperatures

Place Temperature

Nearby Weather Stations